Time;durP1;ratioP1;P1;durP2;ratioP2;P2;SDS_P1;SDS_P2;PMS_P1;PMS_P2;Temp;Humidity;BMP_temperature;BMP_pressure;BME280_temperature;BME280_humidity;BME280_pressure;Samples;Min_cycle;Max_cycle;Signal;HPM_P1;HPM_P2
2023/10/28 00:00:58;;;;;;;0.47;0.47;;;;;;;10.95;85.56;94086.75;4279665;33;20202;-64
2023/10/28 00:03:26;;;;;;;0.20;0.20;;;;;;;10.88;85.96;94091.81;4290455;33;20189;-64
2023/10/28 00:05:51;;;;;;;0.30;0.30;;;;;;;10.62;88.08;94101.84;4285224;33;20205;-64
2023/10/28 00:08:16;;;;;;;4.43;0.50;;;;;;;10.62;89.38;94112.44;4275356;33;20194;-64
2023/10/28 00:10:44;;;;;;;0.00;0.00;;;;;;;10.66;90.72;94116.78;4268607;33;20293;-64
2023/10/28 00:13:12;;;;;;;0.00;0.00;;;;;;;10.79;92.55;94127.47;4296849;33;20213;-64
2023/10/28 00:15:39;;;;;;;0.20;0.20;;;;;;;10.64;93.59;94118.19;4303593;33;20272;-64
2023/10/28 00:18:08;;;;;;;0.07;0.07;;;;;;;10.54;94.13;94110.63;4255485;33;20203;-64
2023/10/28 00:20:35;;;;;;;0.27;0.23;;;;;;;10.52;95.03;94110.19;4262241;33;20190;-64
2023/10/28 00:23:03;;;;;;;0.00;0.00;;;;;;;10.59;95.12;94105.94;4253435;33;20190;-63
2023/10/28 00:25:31;;;;;;;0.00;0.00;;;;;;;10.49;96.05;94111.59;4262463;33;20232;-64
2023/10/28 00:28:01;;;;;;;0.30;0.30;;;;;;;10.57;96.46;94108.13;4303535;33;20258;-64
2023/10/28 00:30:29;;;;;;;0.17;0.17;;;;;;;10.54;97.46;94115.94;4274334;33;20195;-63
2023/10/28 00:32:58;;;;;;;0.17;0.17;;;;;;;10.41;97.50;94119.59;4304998;33;20221;-63
2023/10/28 00:35:24;;;;;;;0.10;0.10;;;;;;;10.47;97.73;94120.97;4244712;33;20190;-63
2023/10/28 00:37:50;;;;;;;0.00;0.00;;;;;;;10.38;98.51;94122.91;4249862;33;20246;-64
2023/10/28 00:40:20;;;;;;;0.30;0.10;;;;;;;10.49;97.77;94134.69;4257930;33;20191;-64
2023/10/28 00:42:45;;;;;;;0.07;0.07;;;;;;;10.62;97.21;94136.31;4283151;33;20198;-63
2023/10/28 00:45:13;;;;;;;0.10;0.10;;;;;;;10.54;97.72;94140.59;4287228;33;20212;-63
2023/10/28 00:47:41;;;;;;;0.10;0.00;;;;;;;10.52;97.54;94134.81;4283061;33;20205;-64
2023/10/28 00:50:14;;;;;;;0.10;0.00;;;;;;;10.47;97.15;94139.53;4296271;33;20245;-63
2023/10/28 00:52:54;;;;;;;0.10;0.10;;;;;;;10.38;97.79;94141.47;4291830;33;20198;-64
2023/10/28 00:55:26;;;;;;;0.30;0.23;;;;;;;10.32;97.83;94143.53;4269525;33;20198;-63
2023/10/28 00:57:53;;;;;;;0.20;0.20;;;;;;;10.36;97.45;94146.31;4264594;33;20212;-63
2023/10/28 01:00:20;;;;;;;0.17;0.17;;;;;;;10.51;96.89;94141.22;4255237;33;20191;-63
2023/10/28 01:02:48;;;;;;;0.00;0.00;;;;;;;10.41;97.33;94140.81;4308763;33;20209;-64
2023/10/28 01:05:16;;;;;;;0.63;0.40;;;;;;;10.50;96.75;94138.91;4293990;33;20261;-64
2023/10/28 01:07:44;;;;;;;0.27;0.27;;;;;;;10.54;96.98;94142.47;4303046;33;20236;-64
2023/10/28 01:10:10;;;;;;;0.10;0.10;;;;;;;10.39;96.84;94137.72;4292260;33;20242;-63
2023/10/28 01:12:41;;;;;;;0.10;0.10;;;;;;;10.48;96.53;94143.75;4274363;33;20200;-64
2023/10/28 01:15:07;;;;;;;0.00;0.00;;;;;;;10.42;96.78;94142.38;4277271;33;20190;-64
2023/10/28 01:17:35;;;;;;;0.00;0.00;;;;;;;10.37;96.63;94148.66;4236334;33;20186;-64
2023/10/28 01:20:03;;;;;;;0.00;0.00;;;;;;;10.47;96.22;94144.84;4290489;33;20253;-64
2023/10/28 01:22:30;;;;;;;5.00;0.40;;;;;;;10.60;95.64;94152.53;4262363;33;20258;-64
2023/10/28 01:24:55;;;;;;;0.00;0.00;;;;;;;10.69;94.95;94147.19;4301007;33;20200;-64
2023/10/28 01:27:20;;;;;;;0.10;0.10;;;;;;;10.49;94.97;94154.03;4281477;33;20242;-63
2023/10/28 01:29:48;;;;;;;0.70;0.20;;;;;;;10.50;94.48;94152.16;4271876;33;20225;-64
2023/10/28 01:32:14;;;;;;;0.03;0.03;;;;;;;10.39;95.23;94157.06;4268928;33;20255;-64
2023/10/28 01:34:56;;;;;;;0.03;0.03;;;;;;;10.50;95.16;94157.44;4272236;33;20220;-64
2023/10/28 01:37:22;;;;;;;0.00;0.00;;;;;;;10.42;94.47;94155.63;4264022;33;20265;-63
2023/10/28 01:39:52;;;;;;;0.00;0.00;;;;;;;10.38;94.00;94155.50;4311302;33;20186;-63
2023/10/28 01:42:36;;;;;;;0.00;0.00;;;;;;;10.49;93.48;94145.28;4298712;33;20190;-63
2023/10/28 01:45:01;;;;;;;0.00;0.00;;;;;;;10.35;93.49;94147.41;4305702;33;20185;-63
2023/10/28 01:47:29;;;;;;;0.10;0.10;;;;;;;10.33;93.65;94140.56;4297799;33;20197;-63
2023/10/28 01:49:58;;;;;;;0.00;0.00;;;;;;;10.38;93.14;94146.78;4298024;33;20183;-64
2023/10/28 01:52:25;;;;;;;0.00;0.00;;;;;;;10.38;92.75;94144.12;4312810;33;20263;-64
2023/10/28 01:54:51;;;;;;;0.10;0.10;;;;;;;10.44;92.43;94148.13;4278953;33;20187;-64
2023/10/28 01:57:18;;;;;;;0.00;0.00;;;;;;;10.55;92.29;94146.66;4270297;33;20270;-64
2023/10/28 01:59:44;;;;;;;0.00;0.00;;;;;;;10.53;90.76;94148.88;4266436;33;20195;-63
2023/10/28 02:02:11;;;;;;;0.00;0.00;;;;;;;10.63;90.45;94148.47;4302716;33;20228;-64
2023/10/28 02:04:38;;;;;;;0.40;0.20;;;;;;;10.53;90.55;94147.00;4292639;33;20209;-64
2023/10/28 02:07:06;;;;;;;0.00;0.00;;;;;;;10.49;91.15;94151.38;4307411;33;20182;-63
2023/10/28 02:09:36;;;;;;;0.00;0.00;;;;;;;10.54;90.96;94139.81;4283244;33;20191;-64
2023/10/28 02:12:04;;;;;;;0.03;0.00;;;;;;;10.55;90.26;94136.06;4284669;33;20181;-64
2023/10/28 02:14:31;;;;;;;0.20;0.20;;;;;;;10.82;90.13;94143.50;4285813;33;20221;-63
2023/10/28 02:16:58;;;;;;;0.10;0.10;;;;;;;10.93;89.29;94144.69;4279062;33;20217;-63
2023/10/28 02:19:26;;;;;;;0.50;0.20;;;;;;;10.95;89.20;94142.47;4267082;33;20234;-64
2023/10/28 02:21:54;;;;;;;0.30;0.30;;;;;;;11.04;88.50;94137.09;4255489;33;20189;-64
2023/10/28 02:24:21;;;;;;;0.00;0.00;;;;;;;10.96;88.23;94145.91;4281301;33;20198;-64
2023/10/28 02:26:48;;;;;;;1.43;0.47;;;;;;;10.92;87.86;94145.78;4258710;33;20190;-63
2023/10/28 02:29:16;;;;;;;0.00;0.00;;;;;;;10.76;87.82;94158.06;4288691;33;20218;-63
2023/10/28 02:31:42;;;;;;;0.10;0.10;;;;;;;10.80;88.07;94159.00;4297567;33;20245;-63
2023/10/28 02:34:08;;;;;;;0.07;0.07;;;;;;;10.66;87.59;94161.88;4293478;33;20242;-64
2023/10/28 02:36:34;;;;;;;0.10;0.10;;;;;;;10.79;87.85;94160.09;4327369;33;20194;-64
2023/10/28 02:39:03;;;;;;;0.20;0.20;;;;;;;10.85;87.52;94156.13;4284879;33;20222;-64
2023/10/28 02:41:30;;;;;;;0.53;0.20;;;;;;;10.76;87.48;94147.47;4284227;33;20235;-64
2023/10/28 02:43:58;;;;;;;0.00;0.00;;;;;;;10.68;87.10;94148.28;4268389;33;20186;-64
2023/10/28 02:46:25;;;;;;;0.27;0.27;;;;;;;10.62;87.71;94154.87;4286698;33;20196;-63
2023/10/28 02:48:51;;;;;;;1.70;0.40;;;;;;;10.66;86.67;94148.59;4290949;33;20190;-64
2023/10/28 02:51:17;;;;;;;0.00;0.00;;;;;;;10.64;86.40;94150.81;4253840;33;20182;-64
2023/10/28 02:53:45;;;;;;;0.20;0.20;;;;;;;10.80;87.25;94153.69;4307425;33;20216;-64
2023/10/28 02:56:10;;;;;;;0.00;0.00;;;;;;;10.94;85.83;94150.75;4287943;33;20281;-63
2023/10/28 02:58:39;;;;;;;0.00;0.00;;;;;;;10.78;85.47;94158.53;4293991;33;20198;-64
2023/10/28 03:01:10;;;;;;;0.10;0.10;;;;;;;10.76;86.30;94152.78;4279118;33;20182;-64
2023/10/28 03:03:36;;;;;;;0.27;0.27;;;;;;;10.71;85.24;94147.66;4292306;33;20267;-63
2023/10/28 03:06:03;;;;;;;0.20;0.20;;;;;;;10.71;84.86;94144.22;4304015;33;20202;-64
2023/10/28 03:08:28;;;;;;;5.00;0.47;;;;;;;10.71;85.07;94138.91;4287749;33;20195;-64
2023/10/28 03:10:54;;;;;;;0.93;0.07;;;;;;;10.66;84.70;94140.66;4279407;33;20202;-64
2023/10/28 03:13:20;;;;;;;0.00;0.00;;;;;;;10.59;84.18;94140.41;4321566;32;20241;-63
2023/10/28 03:15:46;;;;;;;0.10;0.10;;;;;;;10.66;84.94;94142.53;4258286;33;20199;-64
2023/10/28 03:18:15;;;;;;;1.30;0.30;;;;;;;10.60;84.03;94143.81;4285102;33;20198;-64
2023/10/28 03:20:42;;;;;;;0.27;0.27;;;;;;;10.79;83.99;94141.53;4269816;33;20218;-63
2023/10/28 03:23:10;;;;;;;0.10;0.10;;;;;;;10.89;83.71;94141.13;4281053;33;20186;-63
2023/10/28 03:25:35;;;;;;;0.00;0.00;;;;;;;10.94;83.54;94143.59;4278132;33;20190;-63
2023/10/28 03:28:04;;;;;;;0.00;0.00;;;;;;;11.03;82.86;94144.28;4259317;33;20195;-64
2023/10/28 03:30:31;;;;;;;0.43;0.43;;;;;;;10.84;83.62;94146.59;4253522;33;20244;-64
2023/10/28 03:32:57;;;;;;;0.40;0.40;;;;;;;10.72;83.67;94156.38;4260671;33;20191;-64
2023/10/28 03:35:31;;;;;;;0.00;0.00;;;;;;;10.73;83.53;94149.97;4281270;33;20238;-63
2023/10/28 03:37:57;;;;;;;0.57;0.30;;;;;;;10.64;84.12;94148.16;4292340;33;20213;-63
2023/10/28 03:40:27;;;;;;;0.00;0.00;;;;;;;10.67;83.70;94147.50;4280488;33;20186;-64
2023/10/28 03:42:52;;;;;;;0.10;0.10;;;;;;;10.89;83.43;94154.37;4309652;32;20329;-64
2023/10/28 03:45:20;;;;;;;0.10;0.10;;;;;;;10.69;83.66;94160.44;4299091;33;20186;-63
2023/10/28 03:47:45;;;;;;;0.00;0.00;;;;;;;10.73;83.40;94158.72;4325681;32;20196;-63
2023/10/28 03:50:11;;;;;;;0.13;0.13;;;;;;;10.74;83.37;94162.94;4291119;33;20205;-64
2023/10/28 03:52:37;;;;;;;0.10;0.10;;;;;;;10.54;83.80;94156.50;4285537;33;20309;-63
2023/10/28 03:55:03;;;;;;;0.00;0.00;;;;;;;10.47;83.85;94166.81;4296394;33;20183;-64
2023/10/28 03:57:30;;;;;;;0.10;0.10;;;;;;;10.57;83.30;94161.16;4307539;33;20205;-63
2023/10/28 03:59:58;;;;;;;0.40;0.33;;;;;;;10.69;83.15;94163.09;4294364;33;20200;-64
2023/10/28 04:02:25;;;;;;;0.50;0.20;;;;;;;10.36;83.67;94162.22;4280415;33;20175;-63
2023/10/28 04:04:54;;;;;;;0.00;0.00;;;;;;;10.50;83.60;94176.00;4288736;33;20236;-63
2023/10/28 04:07:21;;;;;;;0.20;0.20;;;;;;;10.47;83.57;94176.66;4287153;33;20265;-64
2023/10/28 04:09:46;;;;;;;0.07;0.07;;;;;;;10.45;84.30;94176.97;4263077;33;20296;-63
2023/10/28 04:12:15;;;;;;;0.10;0.10;;;;;;;10.46;83.78;94175.09;4287876;33;20322;-63
2023/10/28 04:14:43;;;;;;;0.00;0.00;;;;;;;10.57;83.38;94171.00;4281083;33;20229;-63
2023/10/28 04:17:11;;;;;;;0.20;0.20;;;;;;;10.49;83.37;94169.16;4272530;33;20222;-64
2023/10/28 04:19:37;;;;;;;0.00;0.00;;;;;;;10.54;83.54;94176.94;4279961;33;20174;-64
2023/10/28 04:22:02;;;;;;;0.00;0.00;;;;;;;10.60;83.31;94175.63;4285926;33;20186;-64
2023/10/28 04:24:29;;;;;;;0.00;0.00;;;;;;;10.66;83.42;94175.12;4314178;33;20232;-64
2023/10/28 04:26:54;;;;;;;0.50;0.37;;;;;;;10.57;82.68;94181.59;4281365;33;20264;-64
2023/10/28 04:29:19;;;;;;;0.00;0.00;;;;;;;10.73;82.74;94182.59;4310505;33;20177;-63
2023/10/28 04:31:49;;;;;;;0.90;0.27;;;;;;;10.56;82.21;94185.34;4270784;33;20229;-63
2023/10/28 04:34:14;;;;;;;0.03;0.03;;;;;;;10.66;82.45;94180.44;4277670;33;20187;-63
2023/10/28 04:36:41;;;;;;;0.30;0.17;;;;;;;10.66;81.96;94187.63;4276340;33;20245;-63
2023/10/28 04:39:07;;;;;;;0.00;0.00;;;;;;;10.67;81.85;94181.22;4294139;33;20200;-63
2023/10/28 04:41:34;;;;;;;0.20;0.20;;;;;;;10.59;82.34;94182.06;4310258;33;20195;-63
2023/10/28 04:44:01;;;;;;;0.20;0.20;;;;;;;10.62;82.96;94184.81;4304242;33;20252;-64
2023/10/28 04:46:27;;;;;;;0.10;0.10;;;;;;;10.59;82.11;94185.50;4313360;33;20177;-63
2023/10/28 04:48:54;;;;;;;0.00;0.00;;;;;;;10.66;81.49;94188.41;4316382;33;20239;-64
2023/10/28 04:51:21;;;;;;;0.00;0.00;;;;;;;10.57;81.64;94186.91;4323049;33;20288;-63
2023/10/28 04:53:48;;;;;;;0.10;0.10;;;;;;;10.64;81.79;94195.09;4275767;33;20266;-63
2023/10/28 04:56:18;;;;;;;0.00;0.00;;;;;;;10.61;81.72;94187.78;4278054;33;20272;-63
2023/10/28 04:58:47;;;;;;;0.10;0.10;;;;;;;10.58;81.31;94189.25;4292958;33;20178;-63
2023/10/28 05:01:14;;;;;;;0.27;0.23;;;;;;;10.61;81.06;94187.78;4276866;33;20321;-63
2023/10/28 05:03:41;;;;;;;0.30;0.30;;;;;;;10.59;81.27;94192.66;4318883;33;20193;-64
2023/10/28 05:06:09;;;;;;;0.00;0.00;;;;;;;10.74;80.77;94192.09;4315413;33;20186;-63
2023/10/28 05:08:36;;;;;;;0.00;0.00;;;;;;;10.79;80.86;94189.28;4263245;33;20193;-64
2023/10/28 05:11:04;;;;;;;0.00;0.00;;;;;;;10.59;81.03;94187.38;4286516;33;20201;-63
2023/10/28 05:13:30;;;;;;;0.90;0.23;;;;;;;10.61;80.71;94198.41;4299101;33;20182;-63
2023/10/28 05:15:58;;;;;;;0.10;0.10;;;;;;;10.66;80.36;94198.22;4278523;33;20197;-64
2023/10/28 05:18:23;;;;;;;0.00;0.00;;;;;;;10.62;80.42;94189.34;4263133;33;20206;-63
2023/10/28 05:20:50;;;;;;;0.30;0.30;;;;;;;10.62;81.49;94190.12;4245662;33;20197;-63
2023/10/28 05:23:16;;;;;;;0.20;0.20;;;;;;;10.61;81.10;94187.78;4251330;33;20281;-63
2023/10/28 05:25:44;;;;;;;0.17;0.17;;;;;;;10.59;81.09;94195.31;4272344;33;20175;-64
2023/10/28 05:28:11;;;;;;;0.00;0.00;;;;;;;10.65;81.19;94197.44;4270492;32;20229;-63
2023/10/28 05:30:36;;;;;;;0.30;0.30;;;;;;;10.71;80.82;94198.03;4274602;33;20248;-63
2023/10/28 05:33:03;;;;;;;0.00;0.00;;;;;;;10.76;80.64;94191.78;4300211;33;20265;-63
2023/10/28 05:35:31;;;;;;;0.17;0.13;;;;;;;10.88;80.50;94194.50;4317303;33;20178;-63
2023/10/28 05:37:57;;;;;;;0.00;0.00;;;;;;;10.96;80.19;94197.09;4293295;33;20231;-63
2023/10/28 05:40:24;;;;;;;0.20;0.20;;;;;;;10.94;80.13;94196.66;4297641;33;20182;-64
2023/10/28 05:42:50;;;;;;;0.00;0.00;;;;;;;11.18;79.58;94211.16;4318944;33;20253;-63
2023/10/28 05:45:18;;;;;;;0.20;0.20;;;;;;;11.18;79.32;94209.28;4300547;33;20187;-64
2023/10/28 05:47:46;;;;;;;0.10;0.10;;;;;;;11.00;80.26;94213.94;4324697;32;20312;-63
2023/10/28 05:50:13;;;;;;;0.03;0.03;;;;;;;11.15;79.71;94214.47;4293109;33;20229;-64
2023/10/28 05:52:40;;;;;;;0.13;0.13;;;;;;;10.97;79.92;94216.47;4293459;33;20241;-63
2023/10/28 05:55:07;;;;;;;0.23;0.23;;;;;;;11.08;79.63;94209.66;4289466;33;20183;-63
2023/10/28 05:57:37;;;;;;;0.17;0.17;;;;;;;11.21;79.68;94221.13;4274039;33;20262;-63
2023/10/28 06:00:09;;;;;;;0.00;0.00;;;;;;;11.37;78.32;94211.47;4333566;32;20177;-64
2023/10/28 06:02:38;;;;;;;0.13;0.13;;;;;;;11.31;78.13;94210.88;4281819;33;20197;-64
2023/10/28 06:05:03;;;;;;;0.10;0.10;;;;;;;11.25;78.30;94219.38;4298580;32;20195;-63
2023/10/28 06:07:50;;;;;;;0.00;0.00;;;;;;;11.20;79.25;94220.34;4310988;33;20200;-63
2023/10/28 06:10:17;;;;;;;0.20;0.20;;;;;;;11.20;78.93;94222.25;4293355;33;20177;-63
2023/10/28 06:12:44;;;;;;;0.20;0.20;;;;;;;11.20;79.32;94224.88;4287846;33;20246;-63
2023/10/28 06:15:11;;;;;;;0.10;0.10;;;;;;;11.30;78.34;94229.78;4288497;33;20186;-64
2023/10/28 06:17:38;;;;;;;0.30;0.30;;;;;;;11.33;78.27;94234.47;4273201;33;20179;-64
2023/10/28 06:20:06;;;;;;;0.13;0.13;;;;;;;11.37;78.16;94235.38;4283786;33;20186;-64
2023/10/28 06:22:35;;;;;;;0.07;0.07;;;;;;;11.21;78.57;94231.75;4295198;33;20284;-63
2023/10/28 06:25:04;;;;;;;0.47;0.43;;;;;;;11.33;78.76;94231.81;4272000;33;20293;-63
2023/10/28 06:27:35;;;;;;;0.40;0.40;;;;;;;11.12;79.40;94233.69;4307958;33;20186;-64
2023/10/28 06:30:01;;;;;;;0.00;0.00;;;;;;;11.16;79.29;94239.91;4269996;33;20183;-63
2023/10/28 06:32:31;;;;;;;0.00;0.00;;;;;;;11.20;79.15;94233.63;4270149;33;20209;-64
2023/10/28 06:34:59;;;;;;;0.27;0.20;;;;;;;11.20;78.86;94240.81;4275982;33;20205;-63
2023/10/28 06:37:27;;;;;;;0.47;0.20;;;;;;;11.22;78.97;94243.94;4299674;33;20182;-63
2023/10/28 06:39:54;;;;;;;0.27;0.27;;;;;;;11.18;79.21;94243.78;4307796;32;20192;-64
2023/10/28 06:42:20;;;;;;;4.37;0.30;;;;;;;11.24;78.49;94247.00;4308956;33;20261;-63
2023/10/28 06:44:47;;;;;;;0.10;0.10;;;;;;;11.28;77.98;94247.94;4252812;33;20199;-64
2023/10/28 06:47:12;;;;;;;0.83;0.27;;;;;;;11.26;78.26;94244.81;4289721;33;20178;-64
2023/10/28 06:49:38;;;;;;;0.20;0.20;;;;;;;11.34;77.97;94252.72;4313128;33;20208;-63
2023/10/28 06:52:04;;;;;;;0.30;0.30;;;;;;;11.34;77.74;94249.28;4305626;33;20182;-63
2023/10/28 06:54:31;;;;;;;0.10;0.10;;;;;;;11.26;78.18;94250.91;4303521;33;20252;-64
2023/10/28 06:56:57;;;;;;;0.10;0.10;;;;;;;11.24;78.15;94254.97;4281563;33;20194;-64
2023/10/28 06:59:26;;;;;;;5.63;0.37;;;;;;;11.06;78.58;94256.19;4300123;33;20182;-63
2023/10/28 07:01:53;;;;;;;0.07;0.07;;;;;;;11.31;78.53;94265.88;4305808;33;20204;-63
2023/10/28 07:04:22;;;;;;;0.10;0.10;;;;;;;11.30;78.42;94272.28;4289341;33;20197;-64
2023/10/28 07:06:49;;;;;;;0.10;0.10;;;;;;;11.19;78.75;94271.91;4293178;33;20182;-63
2023/10/28 07:09:17;;;;;;;0.23;0.23;;;;;;;11.24;78.98;94279.66;4283141;33;20182;-63
2023/10/28 07:11:45;;;;;;;0.10;0.10;;;;;;;11.11;79.41;94274.59;4315619;33;20249;-63
2023/10/28 07:14:13;;;;;;;0.20;0.20;;;;;;;11.09;80.00;94272.25;4317430;33;20267;-64
2023/10/28 07:16:41;;;;;;;0.00;0.00;;;;;;;10.87;80.05;94273.31;4303911;33;20225;-64
2023/10/28 07:19:07;;;;;;;0.13;0.13;;;;;;;11.02;79.48;94286.03;4312545;33;20178;-63
2023/10/28 07:21:32;;;;;;;0.07;0.07;;;;;;;11.03;79.94;94278.84;4292257;33;20213;-63
2023/10/28 07:24:00;;;;;;;0.00;0.00;;;;;;;11.16;80.35;94280.50;4274745;33;20201;-64
2023/10/28 07:26:28;;;;;;;0.00;0.00;;;;;;;11.25;80.19;94283.84;4255489;33;20182;-64
2023/10/28 07:28:54;;;;;;;0.20;0.20;;;;;;;11.18;80.14;94275.66;4260684;33;20205;-64
2023/10/28 07:31:20;;;;;;;3.10;0.20;;;;;;;11.14;78.99;94285.34;4262844;33;20215;-63
2023/10/28 07:33:46;;;;;;;0.17;0.17;;;;;;;11.11;79.71;94279.91;4268009;32;20199;-63
2023/10/28 07:36:12;;;;;;;0.10;0.10;;;;;;;11.20;79.65;94284.06;4266603;33;20222;-64
2023/10/28 07:38:40;;;;;;;0.00;0.00;;;;;;;11.36;78.65;94293.00;4302090;33;20200;-63
2023/10/28 07:41:08;;;;;;;0.60;0.30;;;;;;;11.39;78.01;94299.56;4290497;33;20242;-64
2023/10/28 07:43:36;;;;;;;0.00;0.00;;;;;;;11.28;77.40;94306.34;4294773;33;20221;-64
2023/10/28 07:46:02;;;;;;;5.33;0.73;;;;;;;11.35;76.74;94306.59;4300127;33;20261;-64
2023/10/28 07:48:30;;;;;;;0.20;0.20;;;;;;;11.32;78.64;94302.72;4291553;33;20185;-64
2023/10/28 07:50:59;;;;;;;0.17;0.17;;;;;;;11.33;77.87;94304.28;4302455;32;20192;-64
2023/10/28 07:53:25;;;;;;;0.20;0.20;;;;;;;11.34;77.82;94302.41;4306846;33;20252;-63
2023/10/28 07:55:51;;;;;;;0.13;0.10;;;;;;;11.43;78.20;94316.38;4280746;33;20178;-64
2023/10/28 07:58:18;;;;;;;0.03;0.03;;;;;;;11.55;78.55;94310.38;4275171;33;20195;-64
2023/10/28 08:00:44;;;;;;;0.10;0.10;;;;;;;11.59;79.45;94319.25;4309550;33;20281;-64
2023/10/28 08:03:12;;;;;;;0.00;0.00;;;;;;;11.63;78.67;94328.91;4295304;33;20286;-64
2023/10/28 08:05:39;;;;;;;0.10;0.10;;;;;;;11.64;78.04;94330.44;4307909;33;20196;-64
2023/10/28 08:08:09;;;;;;;0.07;0.07;;;;;;;11.74;77.53;94333.81;4338697;32;20178;-63
2023/10/28 08:10:39;;;;;;;0.00;0.00;;;;;;;11.76;78.46;94329.78;4313187;33;20178;-64
2023/10/28 08:13:06;;;;;;;0.00;0.00;;;;;;;11.84;78.40;94338.78;4313948;33;20182;-64
2023/10/28 08:15:34;;;;;;;0.00;0.00;;;;;;;11.74;77.07;94344.47;4317465;33;20221;-64
2023/10/28 08:18:01;;;;;;;0.10;0.10;;;;;;;11.83;78.01;94342.56;4319512;33;20204;-64
2023/10/28 08:20:28;;;;;;;0.07;0.07;;;;;;;11.84;77.93;94341.44;4326721;32;20186;-64
2023/10/28 08:22:55;;;;;;;2.63;0.30;;;;;;;11.84;76.47;94344.87;4316127;32;20194;-64
2023/10/28 08:25:25;;;;;;;0.10;0.10;;;;;;;11.91;77.84;94339.03;4316722;32;20193;-64
2023/10/28 08:27:52;;;;;;;0.00;0.00;;;;;;;11.91;77.72;94336.38;4295285;33;20268;-64
2023/10/28 08:30:22;;;;;;;0.53;0.10;;;;;;;12.00;77.08;94337.87;4291508;33;20200;-63
2023/10/28 08:32:47;;;;;;;0.20;0.20;;;;;;;12.09;76.29;94342.31;4277311;33;20205;-64
2023/10/28 08:35:14;;;;;;;0.10;0.10;;;;;;;12.13;74.92;94356.50;4299531;33;20257;-64
2023/10/28 08:37:41;;;;;;;0.23;0.23;;;;;;;12.16;74.48;94340.69;4300525;33;20193;-64
2023/10/28 08:40:11;;;;;;;0.30;0.30;;;;;;;12.33;74.44;94353.03;4301143;33;20174;-64
2023/10/28 08:42:37;;;;;;;0.77;0.20;;;;;;;12.46;73.65;94343.25;4313272;33;20226;-64
2023/10/28 08:45:08;;;;;;;0.13;0.13;;;;;;;12.45;71.01;94344.34;4312534;33;20276;-64
2023/10/28 08:47:42;;;;;;;0.00;0.00;;;;;;;12.53;69.81;94343.47;4273610;33;20186;-64
2023/10/28 08:50:09;;;;;;;0.33;0.30;;;;;;;12.64;70.34;94349.94;4305558;33;20245;-63
2023/10/28 08:52:37;;;;;;;0.13;0.07;;;;;;;12.62;69.69;94354.78;4296698;33;20229;-63
2023/10/28 08:55:04;;;;;;;0.00;0.00;;;;;;;12.64;69.58;94363.22;4309036;33;20239;-63
2023/10/28 08:57:34;;;;;;;0.33;0.10;;;;;;;12.62;70.13;94368.09;4326405;33;20204;-64
2023/10/28 09:00:00;;;;;;;0.00;0.00;;;;;;;12.53;70.58;94370.84;4310304;33;20225;-63
2023/10/28 09:02:28;;;;;;;0.03;0.00;;;;;;;12.69;69.65;94374.41;4321189;33;20189;-63
2023/10/28 09:04:56;;;;;;;0.10;0.10;;;;;;;12.67;68.39;94370.56;4298511;33;20198;-64
2023/10/28 09:07:23;;;;;;;0.00;0.00;;;;;;;12.55;68.86;94376.63;4306350;33;20240;-63
2023/10/28 09:10:04;;;;;;;0.00;0.00;;;;;;;12.56;68.95;94370.19;4281279;33;20194;-64
2023/10/28 09:12:32;;;;;;;2.13;0.40;;;;;;;12.59;69.94;94376.75;4294871;33;20245;-64
2023/10/28 09:14:59;;;;;;;0.20;0.20;;;;;;;12.62;69.45;94368.87;4297449;33;20192;-63
2023/10/28 09:17:24;;;;;;;0.10;0.10;;;;;;;12.72;69.45;94373.75;4328777;33;20231;-63
2023/10/28 09:19:56;;;;;;;0.00;0.00;;;;;;;12.74;68.26;94376.87;4326415;32;20265;-63
2023/10/28 09:22:25;;;;;;;0.20;0.20;;;;;;;12.76;69.32;94379.22;4298359;33;20222;-64
2023/10/28 09:24:54;;;;;;;0.03;0.03;;;;;;;12.85;68.70;94371.91;4316186;33;20208;-64
2023/10/28 09:27:21;;;;;;;0.23;0.20;;;;;;;12.87;69.74;94369.72;4302327;33;20190;-64
2023/10/28 09:29:47;;;;;;;0.10;0.10;;;;;;;12.96;69.53;94378.34;4302424;33;20216;-63
2023/10/28 09:32:13;;;;;;;0.10;0.10;;;;;;;13.03;68.62;94383.91;4306041;33;20265;-64
2023/10/28 09:34:41;;;;;;;0.00;0.00;;;;;;;12.98;68.76;94370.03;4316628;33;20204;-64
2023/10/28 09:37:10;;;;;;;0.13;0.13;;;;;;;13.00;69.49;94370.50;4325819;33;20237;-63
2023/10/28 09:39:36;;;;;;;0.10;0.10;;;;;;;13.06;68.86;94364.62;4323123;32;20273;-64
2023/10/28 09:42:06;;;;;;;0.13;0.13;;;;;;;13.13;68.71;94371.25;4319604;33;20248;-65
2023/10/28 09:44:34;;;;;;;0.10;0.10;;;;;;;13.17;68.03;94358.88;4309960;33;20189;-64
2023/10/28 09:47:05;;;;;;;0.10;0.10;;;;;;;13.20;67.10;94352.87;4316760;33;20200;-63
2023/10/28 09:49:31;;;;;;;0.00;0.00;;;;;;;13.26;67.46;94349.69;4313223;33;20196;-63
2023/10/28 09:52:06;;;;;;;0.10;0.10;;;;;;;13.23;66.58;94357.56;4317336;33;20190;-64
2023/10/28 09:54:38;;;;;;;0.10;0.10;;;;;;;13.25;67.04;94363.31;4303935;33;20240;-64
2023/10/28 09:57:09;;;;;;;0.00;0.00;;;;;;;13.36;66.69;94356.44;4322580;32;20200;-64
2023/10/28 09:59:39;;;;;;;0.10;0.10;;;;;;;13.33;66.39;94365.84;4340878;32;20238;-63
2023/10/28 10:02:39;;;;;;;0.00;0.00;;;;;;;13.40;65.85;94360.75;4288532;33;20193;-63
2023/10/28 10:05:47;;;;;;;0.10;0.10;;;;;;;13.40;65.95;94365.31;4298283;32;20197;-64
2023/10/28 10:08:23;;;;;;;0.40;0.40;;;;;;;13.41;65.15;94356.97;4331559;32;20200;-63
2023/10/28 10:10:55;;;;;;;0.00;0.00;;;;;;;13.47;65.22;94352.22;4290071;33;20204;-64
2023/10/28 10:13:23;;;;;;;0.10;0.10;;;;;;;13.55;65.01;94366.50;4300904;33;20190;-64
2023/10/28 10:16:09;;;;;;;0.10;0.10;;;;;;;13.58;65.25;94355.97;4317998;32;20200;-63
2023/10/28 10:18:49;;;;;;;0.10;0.10;;;;;;;13.53;64.46;94352.75;4298471;33;20185;-64
2023/10/28 10:21:20;;;;;;;0.20;0.20;;;;;;;13.55;64.57;94351.28;4298787;33;20191;-64
2023/10/28 10:23:56;;;;;;;0.63;0.40;;;;;;;13.59;64.01;94346.84;4317294;33;20232;-64
2023/10/28 10:26:35;;;;;;;0.00;0.00;;;;;;;13.64;64.51;94346.63;4322308;33;20204;-64
2023/10/28 10:29:04;;;;;;;0.30;0.30;;;;;;;13.73;63.25;94341.94;4287857;33;20186;-63
2023/10/28 10:31:34;;;;;;;0.10;0.10;;;;;;;13.69;64.25;94346.41;4303371;33;20208;-63
2023/10/28 10:34:09;;;;;;;0.10;0.10;;;;;;;13.74;62.26;94343.47;4311815;33;20221;-64
2023/10/28 10:36:43;;;;;;;1.23;0.57;;;;;;;13.77;63.74;94348.16;4298701;33;20200;-64
2023/10/28 10:39:20;;;;;;;0.57;0.57;;;;;;;13.77;62.70;94337.47;4297280;33;20197;-64
2023/10/28 10:41:54;;;;;;;0.90;0.33;;;;;;;13.75;64.49;94342.38;4321838;33;20196;-64
2023/10/28 10:44:34;;;;;;;0.20;0.20;;;;;;;13.80;64.32;94337.94;4281493;33;20194;-64
2023/10/28 10:47:04;;;;;;;0.10;0.10;;;;;;;13.78;63.53;94332.94;4288900;32;20192;-63
2023/10/28 10:49:35;;;;;;;0.70;0.53;;;;;;;13.89;63.85;94342.03;4299200;33;20197;-63
2023/10/28 10:52:04;;;;;;;0.00;0.00;;;;;;;13.96;62.90;94338.75;4269143;33;20233;-64
2023/10/28 10:54:35;;;;;;;0.20;0.20;;;;;;;13.97;62.09;94332.31;4316802;33;20182;-64
2023/10/28 10:57:17;;;;;;;0.37;0.37;;;;;;;13.99;62.60;94332.75;4314149;33;20211;-63
2023/10/28 10:59:43;;;;;;;0.40;0.40;;;;;;;14.09;62.06;94342.97;4312496;33;20236;-64
2023/10/28 11:02:10;;;;;;;0.20;0.20;;;;;;;14.19;63.02;94339.00;4286042;33;20191;-64
2023/10/28 11:04:39;;;;;;;0.20;0.20;;;;;;;14.16;63.19;94351.13;4293474;33;20301;-63
2023/10/28 11:07:07;;;;;;;0.23;0.23;;;;;;;14.20;62.26;94345.91;4282597;33;20203;-64
2023/10/28 11:09:34;;;;;;;0.10;0.10;;;;;;;14.12;61.76;94350.28;4316783;33;20266;-64
2023/10/28 11:12:05;;;;;;;0.33;0.33;;;;;;;14.18;61.83;94340.91;4308470;33;20182;-64
2023/10/28 11:14:30;;;;;;;0.13;0.13;;;;;;;14.21;61.89;94340.22;4305059;32;20177;-63
2023/10/28 11:16:57;;;;;;;2.37;0.53;;;;;;;14.15;62.50;94346.91;4308029;33;20252;-64
2023/10/28 11:19:49;;;;;;;0.17;0.17;;;;;;;14.22;62.76;94343.69;4315217;33;20297;-64
2023/10/28 11:22:17;;;;;;;0.23;0.23;;;;;;;14.25;62.02;94335.78;4302431;32;20205;-63
2023/10/28 11:24:57;;;;;;;0.10;0.10;;;;;;;14.25;62.47;94356.34;4283418;32;20212;-64
2023/10/28 11:27:35;;;;;;;0.00;0.00;;;;;;;14.23;61.34;94343.34;4308797;33;20229;-63
2023/10/28 11:30:03;;;;;;;0.83;0.57;;;;;;;14.36;59.96;94352.84;4320444;33;20181;-64
2023/10/28 11:32:43;;;;;;;0.10;0.10;;;;;;;14.32;60.89;94348.53;4304517;33;20190;-63
2023/10/28 11:35:11;;;;;;;0.33;0.27;;;;;;;14.37;61.11;94349.03;4313939;33;20182;-63
2023/10/28 11:37:39;;;;;;;0.60;0.33;;;;;;;14.47;59.43;94331.03;4301135;33;20195;-64
2023/10/28 11:40:09;;;;;;;3.30;0.43;;;;;;;14.43;59.66;94336.28;4305051;33;20185;-64